Data for 01/15/2006

Time Sea-Level Adjusted Pressure Absolute Pressure Temperature Relative Humidity Dew Point   
(mb) (inHg) (mb) (inHg) (C) (F) (%) (C) (F)
00:05 1002 29.59 831 24.54 5.8 42.4 46 -5 22.9
00:10 1002 29.59 831 24.54 5.9 42.6 46 -5 23.1
00:15 1002 29.59 831 24.54 5.9 42.7 46 -4.8 23.3
00:20 1001 29.56 831 24.54 6 42.8 46 -4.8 23.3
00:25 1001 29.56 831 24.54 6.5 43.7 43 -5.1 22.7
00:30 1002 29.59 831 24.54 6.8 44.2 44 -4.6 23.7
00:35 1002 29.59 831 24.54 5.7 42.3 48 -4.4 24.1
00:40 1002 29.59 831 24.54 5.2 41.4 48 -4.8 23.4
00:45 1002 29.59 831 24.54 5.4 41.7 49 -4.6 23.7
00:50 1001 29.56 831 24.54 6.4 43.5 46 -4.3 24.3
00:55 1001 29.56 831 24.54 6.5 43.7 47 -4 24.8
01:00 1001 29.56 831 24.54 6.6 43.8 48 -3.7 25.4
01:05 1001 29.56 831 24.54 6.5 43.6 48 -3.6 25.5
01:10 1001 29.56 831 24.54 6.4 43.5 49 -3.6 25.5
01:15 1001 29.56 831 24.54 6.4 43.6 49 -3.6 25.6
01:20 1001 29.56 831 24.54 6.3 43.4 50 -3.4 25.9
01:25 1002 29.59 831 24.54 6.2 43.1 50 -3.5 25.7
01:30 1001 29.56 831 24.54 6.2 43.2 47 -4.2 24.5
01:35 1001 29.56 831 24.54 6 42.8 48 -4.1 24.6
01:40 1002 29.59 831 24.54 5.6 42.1 50 -4 24.9
01:45 1002 29.59 831 24.54 5.3 41.5 53 -3.5 25.7
01:50 1001 29.56 831 24.54 5 41 54 -3.6 25.5
01:55 1002 29.59 831 24.54 4.9 40.9 55 -3.4 25.9
02:00 1002 29.59 831 24.54 4.8 40.6 57 -3.1 26.4
02:05 1002 29.59 831 24.54 4.4 39.9 61 -2.6 27.4
02:10 1002 29.59 831 24.54 4.2 39.6 64 -2.1 28.2
02:15 1002 29.59 832 24.57 4 39.1 67 -1.6 29.1
02:20 1003 29.62 832 24.57 3.7 38.6 68 -1.6 29.1
02:25 1003 29.62 832 24.57 3.6 38.5 71 -1.2 29.8
02:30 1003 29.62 832 24.57 3.4 38.1 72 -1.2 29.8
02:35 1003 29.62 832 24.57 3.4 38.1 68 -1.9 28.6
02:40 1003 29.62 832 24.57 3.7 38.6 69 -1.5 29.3
02:45 1002 29.59 832 24.57 3.6 38.5 66 -2.1 28.1
02:50 1002 29.59 832 24.57 3.7 38.7 68 -1.7 29
02:55 1002 29.59 832 24.57 3.5 38.4 68 -1.8 28.8
03:00 1003 29.62 832 24.57 3.6 38.5 69 -1.6 29.1
03:05 1002 29.59 832 24.57 3.4 38.1 69 -1.7 28.9
03:10 1002 29.59 832 24.57 3.4 38.1 69 -1.7 29
03:15 1002 29.59 832 24.57 3.4 38.2 69 -1.8 28.8
03:20 1002 29.59 832 24.57 3.3 38 69 -1.8 28.8
03:25 1002 29.59 832 24.57 3.3 38 68 -2 28.4
03:30 1002 29.59 832 24.57 3.4 38.2 67 -2.2 28
03:35 1002 29.59 832 24.57 3.6 38.4 66 -2.1 28.2
03:40 1002 29.59 832 24.57 3.7 38.7 66 -2 28.4
03:45 1002 29.59 832 24.57 3.5 38.2 69 -1.7 29
03:50 1002 29.59 832 24.57 3.2 37.7 70 -1.7 28.9
03:55 1002 29.59 832 24.57 3.1 37.6 70 -1.8 28.8
04:00 1002 29.59 832 24.57 3.2 37.7 70 -1.8 28.7
04:05 1002 29.59 832 24.57 3.2 37.8 69 -1.9 28.6
04:10 1002 29.59 832 24.57 3.4 38.1 68 -1.9 28.6
04:15 1002 29.59 832 24.57 3.7 38.6 67 -1.9 28.6
04:20 1002 29.59 832 24.57 3.7 38.7 67 -1.8 28.7
04:25 1003 29.62 832 24.57 3.6 38.5 68 -1.7 28.9
04:30 1003 29.62 832 24.57 3.5 38.4 68 -1.9 28.6
04:35 1003 29.62 832 24.57 3.6 38.5 68 -1.8 28.8
04:40 1003 29.62 832 24.57 3.5 38.3 69 -1.7 29
04:45 1003 29.62 832 24.57 3.4 38.1 70 -1.6 29.1
04:50 1003 29.62 832 24.57 3.2 37.8 71 -1.6 29.2
04:55 1003 29.62 832 24.57 3.1 37.6 71 -1.6 29.1
05:00 1003 29.62 832 24.57 3.1 37.7 71 -1.6 29.1
05:05 1003 29.62 832 24.57 3.1 37.6 72 -1.5 29.3
05:10 1003 29.62 832 24.57 3.1 37.5 72 -1.5 29.3
05:15 1003 29.62 832 24.57 3 37.4 73 -1.3 29.6
05:20 1003 29.62 832 24.57 2.9 37.2 73 -1.4 29.5
05:25 1003 29.62 832 24.57 2.7 36.9 75 -1.3 29.6
05:30 1003 29.62 832 24.57 2.8 37.1 75 -1.2 29.8
05:35 1003 29.62 832 24.57 2.8 37 75 -1.3 29.6
05:40 1003 29.62 832 24.57 2.8 37 75 -1.2 29.9
05:45 1003 29.62 832 24.57 2.6 36.6 77 -1.1 30
05:50 1003 29.62 832 24.57 2.5 36.5 75 -1.5 29.3
05:55 1003 29.62 833 24.6 2.4 36.2 84 -0 31.9
06:00 1004 29.65 833 24.6 0.7 33.2 94 -0.3 31.5
06:05 1004 29.65 833 24.6 -0.1 31.9 96 -0.7 30.8
06:10 1004 29.65 833 24.6 -0.5 31.1 97 -0.9 30.3
06:15 1004 29.65 833 24.6 -0.7 30.7 98 -1 30.1
06:20 1004 29.65 834 24.63 -0.9 30.5 98 -1.1 30
06:25 1005 29.68 834 24.63 -0.9 30.3 99 -1.1 29.9
06:30 1005 29.68 834 24.63 -1 30.2 99 -1.2 29.9
06:35 1005 29.68 834 24.63 -1 30.2 99 -1.1 30
06:40 1005 29.68 834 24.63 -1 30.2 99 -1.1 30
06:45 1005 29.68 834 24.63 -1.1 30.1 99 -1.2 29.9
06:50 1005 29.68 834 24.63 -1.1 30 99 -1.3 29.7
06:55 1005 29.68 834 24.63 -1.2 29.8 99 -1.3 29.6
07:00 1005 29.68 834 24.63 -1.3 29.7 99 -1.4 29.5
07:05 1005 29.68 835 24.66 -1.3 29.7 99 -1.4 29.4
07:10 1006 29.71 835 24.66 -1.3 29.6 99 -1.5 29.3
07:15 1006 29.71 835 24.66 -1.3 29.6 99 -1.5 29.4
07:20 1006 29.71 835 24.66 -1.2 29.8 99 -1.4 29.5
07:25 1006 29.71 835 24.66 -1.3 29.7 99 -1.4 29.5
07:30 1006 29.71 835 24.66 -1.3 29.7 99 -1.4 29.4
07:35 1006 29.71 835 24.66 -1.2 29.8 99 -1.4 29.6
07:40 1006 29.71 835 24.66 -1.2 29.8 99 -1.4 29.5
07:45 1006 29.71 835 24.66 -1.3 29.7 99 -1.4 29.4
07:50 1006 29.71 836 24.69 -1.4 29.5 99 -1.6 29.2
07:55 1007 29.74 836 24.69 -1.5 29.4 99 -1.6 29
08:00 1007 29.74 836 24.69 -1.5 29.3 99 -1.7 28.9
08:05 1007 29.74 836 24.69 -1.5 29.2 99 -1.7 28.9
08:10 1007 29.74 836 24.69 -1.6 29.2 99 -1.8 28.8
08:15 1007 29.74 836 24.69 -1.7 29 99 -1.9 28.7
08:20 1007 29.74 836 24.69 -1.7 28.9 99 -1.9 28.5
08:25 1007 29.74 836 24.69 -1.7 28.9 99 -1.9 28.6
08:30 1007 29.74 836 24.69 -1.7 28.9 98 -2 28.5
08:35 1007 29.74 836 24.69 -1.8 28.8 98 -2.1 28.3
08:40 1007 29.74 836 24.69 -1.7 28.9 97 -2.1 28.2
08:45 1007 29.74 836 24.69 -1.6 29.1 96 -2.2 28.1
08:50 1007 29.74 836 24.69 -1.7 29 96 -2.2 28
08:55 1007 29.74 836 24.69 -1.8 28.8 96 -2.3 27.9
09:00 1007 29.74 836 24.69 -1.7 28.9 95 -2.4 27.7
09:05 1007 29.74 836 24.69 -1.8 28.8 95 -2.4 27.6
09:10 1007 29.74 836 24.69 -1.7 29 93 -2.6 27.3
09:15 1007 29.74 836 24.69 -1.5 29.2 92 -2.7 27.1
09:20 1007 29.74 837 24.72 -1.3 29.7 89 -2.9 26.8
09:25 1007 29.74 837 24.72 -1.1 30 86 -3.1 26.4
09:30 1007 29.74 837 24.72 -1.1 30.1 85 -3.2 26.2
09:35 1007 29.74 837 24.72 -1 30.3 84 -3.3 26.1
09:40 1008 29.77 837 24.72 -0.9 30.3 84 -3.3 26.1
09:45 1008 29.77 837 24.72 -1 30.2 84 -3.3 26
09:50 1008 29.77 837 24.72 -0.9 30.5 82 -3.5 25.7
09:55 1008 29.77 837 24.72 -0.7 30.8 81 -3.5 25.7
10:00 1008 29.77 837 24.72 -0.6 30.9 80 -3.7 25.4
10:05 1008 29.77 837 24.72 -0.5 31.1 78 -3.8 25.1
10:10 1008 29.77 837 24.72 -0.4 31.3 79 -3.7 25.4
10:15 1008 29.77 837 24.72 -0.4 31.2 77 -4.1 24.7
10:20 1008 29.77 837 24.72 -0.4 31.3 76 -4.2 24.5
10:25 1008 29.77 837 24.72 -0.5 31.1 77 -4.1 24.7
10:30 1008 29.77 837 24.72 -0.4 31.3 76 -4.2 24.5
10:35 1008 29.77 838 24.75 -0.4 31.3 74 -4.5 24
10:40 1008 29.77 838 24.75 -0.4 31.3 71 -5 23.1
10:45 1008 29.77 838 24.75 -0.4 31.3 69 -5.4 22.2
10:50 1009 29.8 838 24.75 -0.5 31.2 67 -5.9 21.5
10:55 1009 29.8 838 24.75 -0.5 31.1 67 -5.8 21.5
11:00 1009 29.8 838 24.75 -0.4 31.3 66 -6 21.2
11:05 1009 29.8 838 24.75 -0.3 31.4 65 -6.1 21.1
11:10 1009 29.8 838 24.75 -0.3 31.4 64 -6.2 20.8
11:15 1009 29.8 838 24.75 -0.3 31.5 65 -6 21.2
11:20 1009 29.8 838 24.75 -0.4 31.3 65 -6.2 20.8
11:25 1009 29.8 838 24.75 -0.4 31.3 64 -6.4 20.5
11:30 1009 29.8 838 24.75 -0.5 31.1 64 -6.5 20.3
11:35 1009 29.8 838 24.75 -0.4 31.2 64 -6.4 20.4
11:40 1009 29.8 838 24.75 -0.4 31.3 63 -6.5 20.3
11:45 1009 29.8 838 24.75 -0.3 31.4 64 -6.4 20.5
11:50 1009 29.8 838 24.75 -0.4 31.4 65 -6.1 20.9
11:55 1009 29.8 838 24.75 -0.4 31.2 65 -6.3 20.7
12:00 1009 29.8 838 24.75 -0.4 31.3 66 -5.9 21.4
12:05 1009 29.8 838 24.75 -0.2 31.6 65 -6 21.2
12:10 1009 29.8 838 24.75 -0.3 31.5 65 -6 21.1
12:15 1009 29.8 838 24.75 -0.2 31.7 64 -6.1 21.1
12:20 1009 29.8 838 24.75 0 32 65 -5.9 21.4
12:25 1009 29.8 838 24.75 0.1 32.1 64 -5.9 21.4
12:30 1009 29.8 838 24.75 0.1 32.2 63 -6 21.1
12:35 1009 29.8 838 24.75 0.3 32.6 63 -6 21.2
12:40 1009 29.8 838 24.75 0.4 32.8 63 -5.8 21.5
12:45 1009 29.8 838 24.75 0.4 32.7 62 -6.1 21
12:50 1009 29.8 838 24.75 0.4 32.8 62 -6.1 21.1
12:55 1009 29.8 838 24.75 0.5 32.8 61 -6.1 21
13:00 1009 29.8 838 24.75 0.5 32.9 61 -6.2 20.9
13:05 1009 29.8 838 24.75 0.5 32.8 61 -6.1 21
13:10 1009 29.8 838 24.75 0.5 32.8 61 -6.2 20.9
13:15 1009 29.8 838 24.75 0.5 32.9 61 -6.3 20.7
13:20 1009 29.8 838 24.75 0.5 33 60 -6.3 20.7
13:25 1009 29.8 838 24.75 0.6 33.2 61 -6.1 21
13:30 1009 29.8 838 24.75 0.6 33.1 61 -6.1 21
13:35 1009 29.8 838 24.75 0.5 32.9 61 -6.1 20.9
13:40 1009 29.8 838 24.75 0.5 32.8 61 -6.2 20.9
13:45 1009 29.8 839 24.78 0.5 32.8 59 -6.6 20.2
13:50 1009 29.8 839 24.78 0.5 32.9 61 -6.2 20.8
13:55 1009 29.8 839 24.78 0.4 32.8 60 -6.4 20.5
14:00 1009 29.8 839 24.78 0.4 32.7 60 -6.4 20.4
14:05 1010 29.83 839 24.78 0.2 32.3 60 -6.7 19.9
14:10 1010 29.83 839 24.78 0 32 61 -6.6 20.2
14:15 1010 29.83 839 24.78 -0 31.9 62 -6.5 20.2
14:20 1010 29.83 839 24.78 -0.1 31.9 62 -6.5 20.3
14:25 1010 29.83 839 24.78 -0.1 31.8 62 -6.5 20.3
14:30 1010 29.83 839 24.78 -0.2 31.7 61 -6.9 19.6
14:35 1010 29.83 839 24.78 -0.3 31.5 61 -6.8 19.7
14:40 1010 29.83 839 24.78 -0.4 31.3 61 -7 19.4
14:45 1010 29.83 839 24.78 -0.5 31.1 61 -7.2 19.1
14:50 1010 29.83 840 24.81 -0.5 31.1 60 -7.4 18.6
14:55 1010 29.83 840 24.81 -0.6 31 60 -7.4 18.7
15:00 1010 29.83 840 24.81 -0.6 30.9 59 -7.6 18.3
15:05 1011 29.85 840 24.81 -0.7 30.8 60 -7.5 18.6
15:10 1011 29.85 840 24.81 -0.8 30.5 60 -7.7 18.2
15:15 1011 29.85 840 24.81 -0.9 30.4 59 -7.8 17.9
15:20 1011 29.85 840 24.81 -0.9 30.3 60 -7.8 17.9
15:25 1011 29.85 840 24.81 -0.9 30.3 60 -7.8 18
15:30 1011 29.85 840 24.81 -1 30.3 60 -7.8 18
15:35 1011 29.85 840 24.81 -0.9 30.3 59 -7.9 17.7
15:40 1011 29.85 840 24.81 -1 30.2 59 -8 17.6
15:45 1011 29.85 840 24.81 -1 30.3 58 -8.2 17.2
15:50 1011 29.85 840 24.81 -1 30.1 58 -8.4 17
15:55 1011 29.85 841 24.83 -0.9 30.3 57 -8.3 17
16:00 1011 29.85 841 24.83 -0.9 30.4 57 -8.5 16.8
16:05 1012 29.88 841 24.83 -1 30.2 57 -8.4 16.8
16:10 1012 29.88 841 24.83 -1.1 30 58 -8.4 16.9
16:15 1012 29.88 841 24.83 -1.2 29.9 58 -8.4 16.9
16:20 1012 29.88 841 24.83 -1.2 29.8 58 -8.4 16.9
16:25 1012 29.88 841 24.83 -1.3 29.7 59 -8.4 16.9
16:30 1012 29.88 841 24.83 -1.3 29.6 58 -8.5 16.7
16:35 1012 29.88 842 24.86 -1.4 29.5 59 -8.4 16.9
16:40 1012 29.88 842 24.86 -1.4 29.4 59 -8.4 16.8
16:45 1013 29.91 842 24.86 -1.5 29.3 59 -8.4 16.8
16:50 1013 29.91 842 24.86 -1.6 29.1 61 -8.2 17.2
16:55 1013 29.91 842 24.86 -1.6 29.1 60 -8.4 16.9
17:00 1013 29.91 842 24.86 -1.7 29 59 -8.6 16.4
17:05 1013 29.91 842 24.86 -1.6 29.1 60 -8.5 16.7
17:10 1013 29.91 842 24.86 -1.6 29.1 58 -8.9 16
17:15 1013 29.91 842 24.86 -1.7 29 60 -8.5 16.7
17:20 1013 29.91 842 24.86 -1.7 28.9 60 -8.5 16.7
17:25 1013 29.91 842 24.86 -1.8 28.7 61 -8.5 16.7
17:30 1013 29.91 843 24.89 -1.9 28.7 59 -8.9 16.1
17:35 1013 29.91 843 24.89 -2.1 28.2 60 -8.8 16.1
17:40 1013 29.91 843 24.89 -2.3 27.9 60 -9 15.9
17:45 1014 29.94 843 24.89 -2.2 28 59 -9.1 15.6
17:50 1014 29.94 843 24.89 -2.1 28.2 60 -9 15.8
17:55 1014 29.94 843 24.89 -2 28.3 59 -9 15.7
18:00 1014 29.94 843 24.89 -2.1 28.3 59 -9.2 15.5
18:05 1014 29.94 843 24.89 -2.1 28.2 58 -9.3 15.3
18:10 1014 29.94 843 24.89 -2.1 28.2 59 -9.1 15.5
18:15 1014 29.94 843 24.89 -2.2 28 60 -9 15.8
18:20 1014 29.94 843 24.89 -2.1 28.1 59 -9.2 15.4
18:25 1014 29.94 843 24.89 -2.1 28.3 58 -9.2 15.5
18:30 1014 29.94 843 24.89 -2 28.5 59 -8.9 15.9
18:35 1014 29.94 843 24.89 -2.1 28.3 60 -8.8 16.1
18:40 1014 29.94 843 24.89 -2.3 27.9 62 -8.6 16.4
18:45 1014 29.94 843 24.89 -2.3 27.9 61 -8.9 16
18:50 1014 29.94 843 24.89 -2.2 28 59 -9.2 15.5
18:55 1014 29.94 843 24.89 -2.1 28.1 60 -9 15.8
19:00 1014 29.94 844 24.92 -2.1 28.2 59 -9 15.8
19:05 1014 29.94 844 24.92 -2.1 28.2 59 -9 15.7
19:10 1015 29.97 844 24.92 -2.1 28.3 60 -8.8 16.1
19:15 1015 29.97 844 24.92 -2.2 28.1 60 -8.9 16
19:20 1015 29.97 844 24.92 -2.3 27.9 61 -8.9 16
19:25 1015 29.97 844 24.92 -2.3 27.9 61 -8.8 16.2
19:30 1015 29.97 844 24.92 -2.3 27.9 61 -8.9 15.9
19:35 1015 29.97 844 24.92 -2.3 27.8 62 -8.7 16.3
19:40 1015 29.97 844 24.92 -2.4 27.7 62 -8.7 16.3
19:45 1015 29.97 844 24.92 -2.5 27.5 62 -8.9 16
19:50 1015 29.97 844 24.92 -2.6 27.3 62 -8.8 16.1
19:55 1015 29.97 844 24.92 -2.7 27.2 62 -8.9 15.9
20:00 1015 29.97 844 24.92 -2.7 27.1 63 -8.9 16
20:05 1015 29.97 844 24.92 -2.8 27 63 -8.9 16
20:10 1015 29.97 844 24.92 -2.8 26.9 63 -8.9 16
20:15 1015 29.97 844 24.92 -2.9 26.8 63 -8.9 15.9
20:20 1015 29.97 845 24.95 -2.9 26.7 64 -8.9 16
20:25 1015 29.97 845 24.95 -3 26.6 64 -9 15.9
20:30 1015 29.97 845 24.95 -3 26.6 64 -9 15.9
20:35 1015 29.97 845 24.95 -3.1 26.5 63 -9.2 15.4
20:40 1015 29.97 845 24.95 -3.1 26.4 64 -9 15.7
20:45 1015 29.97 845 24.95 -3.2 26.3 64 -9.1 15.6
20:50 1015 29.97 845 24.95 -3.2 26.2 62 -9.5 14.9
20:55 1016 30 845 24.95 -3.3 26.1 62 -9.5 14.9
21:00 1016 30 845 24.95 -3.2 26.2 61 -9.8 14.4
21:05 1016 30 845 24.95 -3.1 26.4 60 -9.9 14.1
21:10 1016 30 845 24.95 -3 26.5 59 -9.9 14.2
21:15 1016 30 845 24.95 -3.1 26.5 59 -10 14.1
21:20 1016 30 845 24.95 -3 26.6 60 -9.7 14.6
21:25 1016 30 845 24.95 -3 26.5 60 -9.7 14.5
21:30 1016 30 845 24.95 -3 26.6 61 -9.4 15
21:35 1016 30 845 24.95 -3.1 26.5 60 -9.9 14.3
21:40 1016 30 845 24.95 -3.1 26.4 61 -9.6 14.7
21:45 1016 30 845 24.95 -3.2 26.2 61 -9.8 14.4
21:50 1016 30 845 24.95 -3.3 26 63 -9.5 15
21:55 1016 30 845 24.95 -3.4 25.9 61 -9.9 14.3
22:00 1016 30 845 24.95 -3.4 25.8 61 -9.9 14.3
22:05 1016 30 845 24.95 -3.6 25.6 60 -10.2 13.6
22:10 1016 30 846 24.98 -3.6 25.5 60 -10.3 13.5
22:15 1016 30 846 24.98 -3.6 25.5 60 -10.3 13.5
22:20 1017 30.03 846 24.98 -3.7 25.4 59 -10.6 13
22:25 1017 30.03 846 24.98 -3.7 25.4 59 -10.5 13.1
22:30 1017 30.03 846 24.98 -3.8 25.2 60 -10.4 13.3
22:35 1017 30.03 846 24.98 -3.8 25.1 61 -10.2 13.6
22:40 1017 30.03 846 24.98 -3.9 25 60 -10.5 13
22:45 1017 30.03 846 24.98 -4 24.8 61 -10.5 13.1
22:50 1017 30.03 846 24.98 -4 24.9 60 -10.6 13
22:55 1017 30.03 846 24.98 -4.1 24.7 59 -10.9 12.4
23:00 1017 30.03 846 24.98 -4.1 24.6 59 -11 12.3
23:05 1017 30.03 846 24.98 -4.2 24.5 61 -10.6 13
23:10 1017 30.03 846 24.98 -4.3 24.2 61 -10.7 12.7
23:15 1017 30.03 846 24.98 -4.4 24.2 60 -10.9 12.3
23:20 1017 30.03 846 24.98 -4.4 24.1 61 -10.8 12.6
23:25 1017 30.03 846 24.98 -4.3 24.2 59 -11.1 12
23:30 1017 30.03 846 24.98 -4.4 24.1 60 -11.1 11.9
23:35 1017 30.03 846 24.98 -4.5 23.8 60 -11.2 11.8
23:40 1017 30.03 846 24.98 -4.8 23.4 63 -10.8 12.5
23:45 1017 30.03 846 24.98 -4.9 23.1 63 -10.9 12.4
23:50 1017 30.03 846 24.98 -5.1 22.8 63 -11.1 12
23:55 1017 30.03 847 25.01 -5.2 22.7 65 -10.8 12.5
24:00 1017 30.03 847 25.01 -5.1 22.7 65 -10.8 12.5